LTAY/DNZ METAR and TAF weather

Enter ICAO airport designator
Station Type Date Time Source
LTAY METAR 2020/09/26 23:50 UTC NOAA

LTAY 262350Z 24009KT CAVOK 21/06 Q1014


Station Type Date Time Source
LTAY Decoded METAR 2020/09/26 23:50 UTC NOAA

Cardak, Turkey (LTAY) 37-47N 029-42E
Sep 26, 2020 - 07:50 PM EDT / 2020.09.26 2350 UTC
Wind: from the WSW (240 degrees) at 10 MPH (9 KT):0
Visibility: greater than 7 mile(s):0
Temperature: 69 F (21 C)
Dew Point: 42 F (6 C)
Relative Humidity: 37%
Pressure (altimeter): 29.94 in. Hg (1014 hPa)
ob: LTAY 262350Z 24009KT CAVOK 21/06 Q1014
cycle: 0

Station Type Date Time Source
LTAY TAF UTC NOAA

Error!

Example: see airport list